sensor_id;sensor_type;location;lat;lon;timestamp;P1;durP1;ratioP1;P2;durP2;ratioP2
19919;SDS011;10122;50.074;19.920;2022-07-29T00:02:08;7.45;;;4.03;;
19919;SDS011;10122;50.074;19.920;2022-07-29T00:04:34;6.50;;;3.85;;
19919;SDS011;10122;50.074;19.920;2022-07-29T00:07:01;6.25;;;3.53;;
19919;SDS011;10122;50.074;19.920;2022-07-29T00:09:27;7.00;;;3.17;;
19919;SDS011;10122;50.074;19.920;2022-07-29T00:11:53;5.40;;;3.20;;
19919;SDS011;10122;50.074;19.920;2022-07-29T00:14:21;6.15;;;3.60;;
19919;SDS011;10122;50.074;19.920;2022-07-29T00:16:47;5.03;;;3.17;;
19919;SDS011;10122;50.074;19.920;2022-07-29T00:19:13;5.55;;;3.05;;
19919;SDS011;10122;50.074;19.920;2022-07-29T00:21:38;6.72;;;3.67;;
19919;SDS011;10122;50.074;19.920;2022-07-29T00:24:04;4.28;;;3.00;;
19919;SDS011;10122;50.074;19.920;2022-07-29T00:26:30;7.82;;;3.35;;
19919;SDS011;10122;50.074;19.920;2022-07-29T00:29:00;4.70;;;2.92;;
19919;SDS011;10122;50.074;19.920;2022-07-29T00:31:28;6.53;;;3.28;;
19919;SDS011;10122;50.074;19.920;2022-07-29T00:33:54;5.07;;;3.00;;
19919;SDS011;10122;50.074;19.920;2022-07-29T00:36:20;5.63;;;3.15;;
19919;SDS011;10122;50.074;19.920;2022-07-29T00:38:49;5.28;;;3.30;;
19919;SDS011;10122;50.074;19.920;2022-07-29T00:41:16;7.90;;;2.80;;
19919;SDS011;10122;50.074;19.920;2022-07-29T00:43:42;7.35;;;3.13;;
19919;SDS011;10122;50.074;19.920;2022-07-29T00:46:08;4.70;;;3.10;;
19919;SDS011;10122;50.074;19.920;2022-07-29T00:48:34;7.03;;;3.17;;
19919;SDS011;10122;50.074;19.920;2022-07-29T00:51:01;4.93;;;2.80;;
19919;SDS011;10122;50.074;19.920;2022-07-29T00:53:29;4.93;;;2.70;;
19919;SDS011;10122;50.074;19.920;2022-07-29T00:55:55;4.40;;;2.80;;
19919;SDS011;10122;50.074;19.920;2022-07-29T00:58:22;4.50;;;2.80;;
19919;SDS011;10122;50.074;19.920;2022-07-29T01:00:48;5.22;;;2.67;;
19919;SDS011;10122;50.074;19.920;2022-07-29T01:03:14;6.90;;;3.30;;
19919;SDS011;10122;50.074;19.920;2022-07-29T01:05:40;4.63;;;3.00;;
19919;SDS011;10122;50.074;19.920;2022-07-29T01:08:08;5.47;;;3.20;;
19919;SDS011;10122;50.074;19.920;2022-07-29T01:10:35;7.22;;;3.00;;
19919;SDS011;10122;50.074;19.920;2022-07-29T01:13:03;5.35;;;3.03;;
19919;SDS011;10122;50.074;19.920;2022-07-29T01:15:29;4.55;;;2.60;;
19919;SDS011;10122;50.074;19.920;2022-07-29T01:18:04;5.50;;;2.70;;
19919;SDS011;10122;50.074;19.920;2022-07-29T01:23:40;6.10;;;3.20;;
19919;SDS011;10122;50.074;19.920;2022-07-29T01:28:59;6.35;;;3.10;;
19919;SDS011;10122;50.074;19.920;2022-07-29T01:31:31;5.93;;;3.00;;
19919;SDS011;10122;50.074;19.920;2022-07-29T01:34:07;5.82;;;2.95;;
19919;SDS011;10122;50.074;19.920;2022-07-29T01:36:46;4.03;;;2.65;;
19919;SDS011;10122;50.074;19.920;2022-07-29T01:39:31;6.35;;;3.17;;
19919;SDS011;10122;50.074;19.920;2022-07-29T01:44:48;6.25;;;3.13;;
19919;SDS011;10122;50.074;19.920;2022-07-29T01:47:23;4.95;;;2.60;;
19919;SDS011;10122;50.074;19.920;2022-07-29T01:49:56;6.30;;;3.00;;
19919;SDS011;10122;50.074;19.920;2022-07-29T01:52:37;4.22;;;2.75;;
19919;SDS011;10122;50.074;19.920;2022-07-29T01:55:13;6.80;;;2.90;;
19919;SDS011;10122;50.074;19.920;2022-07-29T01:57:42;5.28;;;2.70;;
19919;SDS011;10122;50.074;19.920;2022-07-29T02:00:11;4.93;;;2.80;;
19919;SDS011;10122;50.074;19.920;2022-07-29T02:02:37;4.90;;;2.80;;
19919;SDS011;10122;50.074;19.920;2022-07-29T02:05:06;5.85;;;2.90;;
19919;SDS011;10122;50.074;19.920;2022-07-29T02:07:35;5.03;;;2.90;;
19919;SDS011;10122;50.074;19.920;2022-07-29T02:10:02;5.10;;;2.90;;
19919;SDS011;10122;50.074;19.920;2022-07-29T02:12:29;5.38;;;2.85;;
19919;SDS011;10122;50.074;19.920;2022-07-29T02:14:57;4.68;;;2.67;;
19919;SDS011;10122;50.074;19.920;2022-07-29T02:17:27;5.35;;;2.70;;
19919;SDS011;10122;50.074;19.920;2022-07-29T02:19:59;5.13;;;2.90;;
19919;SDS011;10122;50.074;19.920;2022-07-29T02:22:28;4.55;;;2.58;;
19919;SDS011;10122;50.074;19.920;2022-07-29T02:24:56;4.38;;;2.83;;
19919;SDS011;10122;50.074;19.920;2022-07-29T02:27:23;4.97;;;2.70;;
19919;SDS011;10122;50.074;19.920;2022-07-29T02:29:52;5.30;;;2.78;;
19919;SDS011;10122;50.074;19.920;2022-07-29T02:32:18;7.72;;;3.20;;
19919;SDS011;10122;50.074;19.920;2022-07-29T02:34:46;5.95;;;3.05;;
19919;SDS011;10122;50.074;19.920;2022-07-29T02:37:12;4.50;;;2.63;;
19919;SDS011;10122;50.074;19.920;2022-07-29T02:39:41;5.50;;;2.70;;
19919;SDS011;10122;50.074;19.920;2022-07-29T02:42:10;5.95;;;2.80;;
19919;SDS011;10122;50.074;19.920;2022-07-29T02:44:39;5.30;;;2.80;;
19919;SDS011;10122;50.074;19.920;2022-07-29T02:47:13;5.20;;;2.80;;
19919;SDS011;10122;50.074;19.920;2022-07-29T02:52:31;5.75;;;2.53;;
19919;SDS011;10122;50.074;19.920;2022-07-29T02:57:54;5.03;;;2.80;;
19919;SDS011;10122;50.074;19.920;2022-07-29T03:00:29;4.43;;;2.67;;
19919;SDS011;10122;50.074;19.920;2022-07-29T03:02:58;3.92;;;2.85;;
19919;SDS011;10122;50.074;19.920;2022-07-29T03:05:28;4.63;;;2.47;;
19919;SDS011;10122;50.074;19.920;2022-07-29T03:07:57;4.38;;;2.72;;
19919;SDS011;10122;50.074;19.920;2022-07-29T03:10:26;4.03;;;2.40;;
19919;SDS011;10122;50.074;19.920;2022-07-29T03:12:52;8.23;;;2.75;;
19919;SDS011;10122;50.074;19.920;2022-07-29T03:15:18;5.00;;;2.67;;
19919;SDS011;10122;50.074;19.920;2022-07-29T03:17:45;5.28;;;2.70;;
19919;SDS011;10122;50.074;19.920;2022-07-29T03:20:12;5.72;;;2.63;;
19919;SDS011;10122;50.074;19.920;2022-07-29T03:22:39;5.57;;;2.92;;
19919;SDS011;10122;50.074;19.920;2022-07-29T03:25:11;6.15;;;2.90;;
19919;SDS011;10122;50.074;19.920;2022-07-29T03:27:37;4.13;;;2.80;;
19919;SDS011;10122;50.074;19.920;2022-07-29T03:30:04;4.68;;;2.83;;
19919;SDS011;10122;50.074;19.920;2022-07-29T03:32:30;4.07;;;2.33;;
19919;SDS011;10122;50.074;19.920;2022-07-29T03:34:56;4.20;;;2.60;;
19919;SDS011;10122;50.074;19.920;2022-07-29T03:37:21;6.25;;;3.10;;
19919;SDS011;10122;50.074;19.920;2022-07-29T03:39:47;3.90;;;2.17;;
19919;SDS011;10122;50.074;19.920;2022-07-29T03:42:15;6.30;;;2.50;;
19919;SDS011;10122;50.074;19.920;2022-07-29T03:44:44;3.42;;;1.90;;
19919;SDS011;10122;50.074;19.920;2022-07-29T03:47:12;4.15;;;2.50;;
19919;SDS011;10122;50.074;19.920;2022-07-29T03:49:39;4.20;;;2.63;;
19919;SDS011;10122;50.074;19.920;2022-07-29T03:52:07;4.35;;;2.60;;
19919;SDS011;10122;50.074;19.920;2022-07-29T03:54:33;4.93;;;2.38;;
19919;SDS011;10122;50.074;19.920;2022-07-29T03:56:59;6.32;;;2.55;;
19919;SDS011;10122;50.074;19.920;2022-07-29T03:59:27;4.43;;;2.55;;
19919;SDS011;10122;50.074;19.920;2022-07-29T04:01:55;3.40;;;2.58;;
19919;SDS011;10122;50.074;19.920;2022-07-29T04:04:22;4.47;;;2.83;;
19919;SDS011;10122;50.074;19.920;2022-07-29T04:06:47;3.08;;;2.33;;
19919;SDS011;10122;50.074;19.920;2022-07-29T04:09:13;6.68;;;2.55;;
19919;SDS011;10122;50.074;19.920;2022-07-29T04:11:39;4.82;;;2.75;;
19919;SDS011;10122;50.074;19.920;2022-07-29T04:14:05;3.22;;;2.53;;
19919;SDS011;10122;50.074;19.920;2022-07-29T04:16:31;7.85;;;2.70;;
19919;SDS011;10122;50.074;19.920;2022-07-29T04:18:57;5.05;;;2.72;;
19919;SDS011;10122;50.074;19.920;2022-07-29T04:21:23;6.28;;;2.60;;
19919;SDS011;10122;50.074;19.920;2022-07-29T04:23:49;3.90;;;2.63;;
19919;SDS011;10122;50.074;19.920;2022-07-29T04:26:15;7.13;;;2.80;;
19919;SDS011;10122;50.074;19.920;2022-07-29T04:28:42;4.80;;;2.72;;
19919;SDS011;10122;50.074;19.920;2022-07-29T04:31:08;4.10;;;2.80;;
19919;SDS011;10122;50.074;19.920;2022-07-29T04:33:34;6.60;;;3.22;;
19919;SDS011;10122;50.074;19.920;2022-07-29T04:35:59;4.40;;;2.83;;
19919;SDS011;10122;50.074;19.920;2022-07-29T04:38:25;5.75;;;3.25;;
19919;SDS011;10122;50.074;19.920;2022-07-29T04:40:50;4.05;;;2.58;;
19919;SDS011;10122;50.074;19.920;2022-07-29T04:43:16;4.47;;;3.25;;
19919;SDS011;10122;50.074;19.920;2022-07-29T04:45:42;5.45;;;3.20;;
19919;SDS011;10122;50.074;19.920;2022-07-29T04:48:07;3.63;;;2.60;;
19919;SDS011;10122;50.074;19.920;2022-07-29T04:50:33;6.13;;;3.28;;
19919;SDS011;10122;50.074;19.920;2022-07-29T04:52:59;12.13;;;3.10;;
19919;SDS011;10122;50.074;19.920;2022-07-29T04:55:25;5.88;;;3.00;;
19919;SDS011;10122;50.074;19.920;2022-07-29T04:57:51;4.05;;;2.95;;
19919;SDS011;10122;50.074;19.920;2022-07-29T05:00:16;4.53;;;2.90;;
19919;SDS011;10122;50.074;19.920;2022-07-29T05:02:42;5.43;;;2.63;;
19919;SDS011;10122;50.074;19.920;2022-07-29T05:05:08;6.43;;;2.90;;
19919;SDS011;10122;50.074;19.920;2022-07-29T05:07:34;4.85;;;2.85;;
19919;SDS011;10122;50.074;19.920;2022-07-29T05:09:59;6.28;;;3.20;;
19919;SDS011;10122;50.074;19.920;2022-07-29T05:12:25;6.03;;;3.03;;
19919;SDS011;10122;50.074;19.920;2022-07-29T05:14:51;5.95;;;2.92;;
19919;SDS011;10122;50.074;19.920;2022-07-29T05:17:17;6.43;;;2.95;;
19919;SDS011;10122;50.074;19.920;2022-07-29T05:19:43;5.25;;;2.63;;
19919;SDS011;10122;50.074;19.920;2022-07-29T05:22:08;6.20;;;3.15;;
19919;SDS011;10122;50.074;19.920;2022-07-29T05:24:34;6.43;;;2.67;;
19919;SDS011;10122;50.074;19.920;2022-07-29T05:26:59;5.88;;;2.92;;
19919;SDS011;10122;50.074;19.920;2022-07-29T05:29:25;5.50;;;2.70;;
19919;SDS011;10122;50.074;19.920;2022-07-29T05:31:51;5.88;;;2.80;;
19919;SDS011;10122;50.074;19.920;2022-07-29T05:34:18;5.05;;;2.90;;
19919;SDS011;10122;50.074;19.920;2022-07-29T05:36:44;5.32;;;3.00;;
19919;SDS011;10122;50.074;19.920;2022-07-29T05:39:10;8.52;;;2.90;;
19919;SDS011;10122;50.074;19.920;2022-07-29T05:41:37;4.68;;;2.70;;
19919;SDS011;10122;50.074;19.920;2022-07-29T05:44:04;6.18;;;2.80;;
19919;SDS011;10122;50.074;19.920;2022-07-29T05:46:29;5.68;;;2.35;;
19919;SDS011;10122;50.074;19.920;2022-07-29T05:48:55;4.38;;;2.40;;
19919;SDS011;10122;50.074;19.920;2022-07-29T05:51:21;5.65;;;2.67;;
19919;SDS011;10122;50.074;19.920;2022-07-29T05:53:47;5.80;;;3.00;;
19919;SDS011;10122;50.074;19.920;2022-07-29T05:56:12;7.55;;;2.88;;
19919;SDS011;10122;50.074;19.920;2022-07-29T05:58:38;3.80;;;2.90;;
19919;SDS011;10122;50.074;19.920;2022-07-29T06:01:03;8.30;;;3.17;;
19919;SDS011;10122;50.074;19.920;2022-07-29T06:03:29;4.90;;;2.63;;
19919;SDS011;10122;50.074;19.920;2022-07-29T06:05:55;7.05;;;2.97;;
19919;SDS011;10122;50.074;19.920;2022-07-29T06:08:20;7.53;;;2.90;;
19919;SDS011;10122;50.074;19.920;2022-07-29T06:10:46;5.32;;;2.78;;
19919;SDS011;10122;50.074;19.920;2022-07-29T06:13:12;5.82;;;2.95;;
19919;SDS011;10122;50.074;19.920;2022-07-29T06:15:38;4.82;;;2.88;;
19919;SDS011;10122;50.074;19.920;2022-07-29T06:18:03;3.67;;;2.50;;
19919;SDS011;10122;50.074;19.920;2022-07-29T06:20:32;5.40;;;2.67;;
19919;SDS011;10122;50.074;19.920;2022-07-29T06:22:58;3.83;;;2.40;;
19919;SDS011;10122;50.074;19.920;2022-07-29T06:25:24;4.22;;;2.60;;
19919;SDS011;10122;50.074;19.920;2022-07-29T06:27:50;5.90;;;2.80;;
19919;SDS011;10122;50.074;19.920;2022-07-29T06:30:17;5.38;;;2.80;;
19919;SDS011;10122;50.074;19.920;2022-07-29T06:32:42;3.20;;;1.83;;
19919;SDS011;10122;50.074;19.920;2022-07-29T06:35:08;5.15;;;2.70;;
19919;SDS011;10122;50.074;19.920;2022-07-29T06:37:34;4.72;;;2.60;;
19919;SDS011;10122;50.074;19.920;2022-07-29T06:39:59;3.95;;;2.63;;
19919;SDS011;10122;50.074;19.920;2022-07-29T06:42:43;3.45;;;2.60;;
19919;SDS011;10122;50.074;19.920;2022-07-29T06:45:10;4.60;;;2.45;;
19919;SDS011;10122;50.074;19.920;2022-07-29T06:47:36;4.75;;;2.90;;
19919;SDS011;10122;50.074;19.920;2022-07-29T06:50:02;4.93;;;2.85;;
19919;SDS011;10122;50.074;19.920;2022-07-29T06:52:29;6.28;;;2.75;;
19919;SDS011;10122;50.074;19.920;2022-07-29T06:54:55;5.32;;;2.80;;
19919;SDS011;10122;50.074;19.920;2022-07-29T06:57:21;5.85;;;2.72;;
19919;SDS011;10122;50.074;19.920;2022-07-29T06:59:47;4.78;;;2.78;;
19919;SDS011;10122;50.074;19.920;2022-07-29T07:02:13;3.50;;;2.45;;
19919;SDS011;10122;50.074;19.920;2022-07-29T07:04:38;4.95;;;2.90;;
19919;SDS011;10122;50.074;19.920;2022-07-29T07:07:04;6.38;;;2.88;;
19919;SDS011;10122;50.074;19.920;2022-07-29T07:09:30;4.13;;;3.00;;
19919;SDS011;10122;50.074;19.920;2022-07-29T07:11:55;5.55;;;3.30;;
19919;SDS011;10122;50.074;19.920;2022-07-29T07:14:21;5.32;;;3.10;;
19919;SDS011;10122;50.074;19.920;2022-07-29T07:16:47;5.00;;;2.95;;
19919;SDS011;10122;50.074;19.920;2022-07-29T07:19:12;4.70;;;2.88;;
19919;SDS011;10122;50.074;19.920;2022-07-29T07:21:38;4.72;;;3.00;;
19919;SDS011;10122;50.074;19.920;2022-07-29T07:24:04;6.60;;;3.13;;
19919;SDS011;10122;50.074;19.920;2022-07-29T07:26:30;5.55;;;2.80;;
19919;SDS011;10122;50.074;19.920;2022-07-29T07:28:56;5.05;;;3.10;;
19919;SDS011;10122;50.074;19.920;2022-07-29T07:31:22;6.25;;;3.35;;
19919;SDS011;10122;50.074;19.920;2022-07-29T07:33:47;10.93;;;3.50;;
19919;SDS011;10122;50.074;19.920;2022-07-29T07:36:13;8.38;;;3.67;;
19919;SDS011;10122;50.074;19.920;2022-07-29T07:38:39;7.15;;;2.97;;
19919;SDS011;10122;50.074;19.920;2022-07-29T07:41:04;6.07;;;3.20;;
19919;SDS011;10122;50.074;19.920;2022-07-29T07:43:30;6.50;;;3.30;;
19919;SDS011;10122;50.074;19.920;2022-07-29T07:45:56;7.80;;;3.30;;
19919;SDS011;10122;50.074;19.920;2022-07-29T07:48:22;2.45;;;2.00;;
19919;SDS011;10122;50.074;19.920;2022-07-29T07:50:47;5.93;;;3.45;;
19919;SDS011;10122;50.074;19.920;2022-07-29T07:53:14;8.48;;;3.40;;
19919;SDS011;10122;50.074;19.920;2022-07-29T07:55:43;4.10;;;2.80;;
19919;SDS011;10122;50.074;19.920;2022-07-29T07:58:09;6.63;;;3.58;;
19919;SDS011;10122;50.074;19.920;2022-07-29T08:00:34;5.88;;;3.45;;
19919;SDS011;10122;50.074;19.920;2022-07-29T08:03:01;6.22;;;3.58;;
19919;SDS011;10122;50.074;19.920;2022-07-29T08:05:27;5.85;;;3.50;;
19919;SDS011;10122;50.074;19.920;2022-07-29T08:07:53;8.13;;;3.60;;
19919;SDS011;10122;50.074;19.920;2022-07-29T08:10:19;7.07;;;3.58;;
19919;SDS011;10122;50.074;19.920;2022-07-29T08:13:04;8.68;;;3.38;;
19919;SDS011;10122;50.074;19.920;2022-07-29T08:15:33;5.60;;;3.30;;
19919;SDS011;10122;50.074;19.920;2022-07-29T08:18:00;6.57;;;3.72;;
19919;SDS011;10122;50.074;19.920;2022-07-29T08:20:26;9.27;;;4.00;;
19919;SDS011;10122;50.074;19.920;2022-07-29T08:22:52;6.35;;;3.20;;
19919;SDS011;10122;50.074;19.920;2022-07-29T08:25:18;7.13;;;3.40;;
19919;SDS011;10122;50.074;19.920;2022-07-29T08:27:46;6.97;;;3.67;;
19919;SDS011;10122;50.074;19.920;2022-07-29T08:30:12;7.75;;;3.38;;
19919;SDS011;10122;50.074;19.920;2022-07-29T08:32:38;4.13;;;3.08;;
19919;SDS011;10122;50.074;19.920;2022-07-29T08:35:03;6.05;;;3.60;;
19919;SDS011;10122;50.074;19.920;2022-07-29T08:37:39;5.82;;;3.50;;
19919;SDS011;10122;50.074;19.920;2022-07-29T08:40:05;6.15;;;3.30;;
19919;SDS011;10122;50.074;19.920;2022-07-29T08:42:31;5.40;;;3.42;;
19919;SDS011;10122;50.074;19.920;2022-07-29T08:44:57;5.82;;;3.55;;
19919;SDS011;10122;50.074;19.920;2022-07-29T08:47:23;4.13;;;3.17;;
19919;SDS011;10122;50.074;19.920;2022-07-29T08:49:51;4.97;;;3.22;;
19919;SDS011;10122;50.074;19.920;2022-07-29T08:52:17;4.60;;;3.30;;
19919;SDS011;10122;50.074;19.920;2022-07-29T08:54:44;6.47;;;3.20;;
19919;SDS011;10122;50.074;19.920;2022-07-29T08:57:13;8.25;;;3.40;;
19919;SDS011;10122;50.074;19.920;2022-07-29T08:59:40;6.07;;;3.50;;
19919;SDS011;10122;50.074;19.920;2022-07-29T09:02:12;5.65;;;3.30;;
19919;SDS011;10122;50.074;19.920;2022-07-29T09:04:47;4.55;;;2.72;;
19919;SDS011;10122;50.074;19.920;2022-07-29T09:07:14;5.32;;;3.10;;
19919;SDS011;10122;50.074;19.920;2022-07-29T09:09:41;5.00;;;3.35;;
19919;SDS011;10122;50.074;19.920;2022-07-29T09:12:07;4.35;;;3.17;;
19919;SDS011;10122;50.074;19.920;2022-07-29T09:14:36;6.03;;;3.35;;
19919;SDS011;10122;50.074;19.920;2022-07-29T09:17:02;4.75;;;2.92;;
19919;SDS011;10122;50.074;19.920;2022-07-29T09:19:30;7.20;;;3.50;;
19919;SDS011;10122;50.074;19.920;2022-07-29T09:21:59;5.15;;;3.80;;
19919;SDS011;10122;50.074;19.920;2022-07-29T09:27:20;5.68;;;3.40;;
19919;SDS011;10122;50.074;19.920;2022-07-29T09:29:54;5.70;;;3.40;;
19919;SDS011;10122;50.074;19.920;2022-07-29T09:32:21;3.83;;;2.85;;
19919;SDS011;10122;50.074;19.920;2022-07-29T09:34:47;5.10;;;3.00;;
19919;SDS011;10122;50.074;19.920;2022-07-29T09:37:25;4.20;;;3.17;;
19919;SDS011;10122;50.074;19.920;2022-07-29T09:39:53;6.28;;;3.28;;
19919;SDS011;10122;50.074;19.920;2022-07-29T09:42:29;5.57;;;2.95;;
19919;SDS011;10122;50.074;19.920;2022-07-29T09:44:54;4.07;;;3.10;;
19919;SDS011;10122;50.074;19.920;2022-07-29T09:47:20;4.38;;;3.10;;
19919;SDS011;10122;50.074;19.920;2022-07-29T09:49:52;6.97;;;3.40;;
19919;SDS011;10122;50.074;19.920;2022-07-29T09:52:28;6.93;;;3.47;;
19919;SDS011;10122;50.074;19.920;2022-07-29T09:55:04;6.63;;;3.20;;
19919;SDS011;10122;50.074;19.920;2022-07-29T09:57:31;8.23;;;3.20;;
19919;SDS011;10122;50.074;19.920;2022-07-29T10:02:30;6.57;;;3.72;;
19919;SDS011;10122;50.074;19.920;2022-07-29T10:04:57;5.80;;;3.20;;
19919;SDS011;10122;50.074;19.920;2022-07-29T10:07:23;6.35;;;3.50;;
19919;SDS011;10122;50.074;19.920;2022-07-29T10:09:56;8.05;;;2.65;;
19919;SDS011;10122;50.074;19.920;2022-07-29T10:12:22;5.38;;;3.10;;
19919;SDS011;10122;50.074;19.920;2022-07-29T10:14:49;3.10;;;2.60;;
19919;SDS011;10122;50.074;19.920;2022-07-29T10:17:16;4.97;;;3.45;;
19919;SDS011;10122;50.074;19.920;2022-07-29T10:19:42;5.57;;;3.30;;
19919;SDS011;10122;50.074;19.920;2022-07-29T10:22:08;4.63;;;2.90;;
19919;SDS011;10122;50.074;19.920;2022-07-29T10:24:36;4.65;;;3.20;;
19919;SDS011;10122;50.074;19.920;2022-07-29T10:27:05;5.40;;;3.45;;
19919;SDS011;10122;50.074;19.920;2022-07-29T10:29:32;7.18;;;3.55;;
19919;SDS011;10122;50.074;19.920;2022-07-29T10:43:33;7.22;;;3.10;;
19919;SDS011;10122;50.074;19.920;2022-07-29T10:46:03;5.63;;;3.05;;
19919;SDS011;10122;50.074;19.920;2022-07-29T10:48:29;5.30;;;2.90;;
19919;SDS011;10122;50.074;19.920;2022-07-29T10:50:56;5.65;;;3.25;;
19919;SDS011;10122;50.074;19.920;2022-07-29T10:53:47;5.03;;;3.25;;
19919;SDS011;10122;50.074;19.920;2022-07-29T10:56:24;5.93;;;2.95;;
19919;SDS011;10122;50.074;19.920;2022-07-29T11:01:45;8.55;;;3.00;;
19919;SDS011;10122;50.074;19.920;2022-07-29T11:04:11;7.38;;;3.47;;
19919;SDS011;10122;50.074;19.920;2022-07-29T11:09:30;6.05;;;3.40;;
19919;SDS011;10122;50.074;19.920;2022-07-29T11:11:56;4.38;;;3.55;;
19919;SDS011;10122;50.074;19.920;2022-07-29T11:17:27;3.72;;;3.20;;
19919;SDS011;10122;50.074;19.920;2022-07-29T11:23:16;6.85;;;3.40;;
19919;SDS011;10122;50.074;19.920;2022-07-29T11:28:34;5.40;;;3.08;;
19919;SDS011;10122;50.074;19.920;2022-07-29T11:31:31;3.60;;;3.10;;
19919;SDS011;10122;50.074;19.920;2022-07-29T11:34:20;4.70;;;3.38;;
19919;SDS011;10122;50.074;19.920;2022-07-29T11:39:35;4.60;;;3.60;;
19919;SDS011;10122;50.074;19.920;2022-07-29T11:47:24;6.50;;;3.55;;
19919;SDS011;10122;50.074;19.920;2022-07-29T11:49:51;7.80;;;3.97;;
19919;SDS011;10122;50.074;19.920;2022-07-29T11:52:17;4.53;;;3.75;;
19919;SDS011;10122;50.074;19.920;2022-07-29T11:54:43;4.55;;;3.60;;
19919;SDS011;10122;50.074;19.920;2022-07-29T11:57:12;5.72;;;4.00;;
19919;SDS011;10122;50.074;19.920;2022-07-29T11:59:40;8.88;;;4.10;;
19919;SDS011;10122;50.074;19.920;2022-07-29T12:02:06;6.63;;;3.80;;
19919;SDS011;10122;50.074;19.920;2022-07-29T12:04:48;7.47;;;3.50;;
19919;SDS011;10122;50.074;19.920;2022-07-29T12:07:28;4.93;;;3.60;;
19919;SDS011;10122;50.074;19.920;2022-07-29T12:09:58;4.32;;;3.15;;
19919;SDS011;10122;50.074;19.920;2022-07-29T12:12:24;3.30;;;2.70;;
19919;SDS011;10122;50.074;19.920;2022-07-29T12:14:50;5.68;;;3.50;;
19919;SDS011;10122;50.074;19.920;2022-07-29T12:17:29;4.93;;;3.70;;
19919;SDS011;10122;50.074;19.920;2022-07-29T12:19:56;5.45;;;3.42;;
19919;SDS011;10122;50.074;19.920;2022-07-29T12:22:27;5.63;;;3.13;;
19919;SDS011;10122;50.074;19.920;2022-07-29T12:25:03;4.63;;;3.22;;
19919;SDS011;10122;50.074;19.920;2022-07-29T12:27:34;4.63;;;3.50;;
19919;SDS011;10122;50.074;19.920;2022-07-29T12:30:05;4.07;;;3.60;;
19919;SDS011;10122;50.074;19.920;2022-07-29T12:32:33;5.10;;;3.60;;
19919;SDS011;10122;50.074;19.920;2022-07-29T12:35:19;5.00;;;3.63;;
19919;SDS011;10122;50.074;19.920;2022-07-29T12:37:46;2.33;;;2.08;;
19919;SDS011;10122;50.074;19.920;2022-07-29T12:40:15;3.20;;;2.58;;
19919;SDS011;10122;50.074;19.920;2022-07-29T12:43:04;4.35;;;3.10;;
19919;SDS011;10122;50.074;19.920;2022-07-29T12:45:38;5.65;;;3.53;;
19919;SDS011;10122;50.074;19.920;2022-07-29T12:48:08;6.10;;;3.70;;
19919;SDS011;10122;50.074;19.920;2022-07-29T12:50:51;5.10;;;3.97;;
19919;SDS011;10122;50.074;19.920;2022-07-29T12:53:18;5.53;;;3.38;;
19919;SDS011;10122;50.074;19.920;2022-07-29T12:55:45;5.90;;;3.85;;
19919;SDS011;10122;50.074;19.920;2022-07-29T13:01:12;4.90;;;3.50;;
19919;SDS011;10122;50.074;19.920;2022-07-29T13:06:26;4.65;;;3.72;;
19919;SDS011;10122;50.074;19.920;2022-07-29T13:09:11;6.72;;;4.13;;
19919;SDS011;10122;50.074;19.920;2022-07-29T13:11:45;5.25;;;3.88;;
19919;SDS011;10122;50.074;19.920;2022-07-29T13:14:13;4.13;;;3.72;;
19919;SDS011;10122;50.074;19.920;2022-07-29T13:17:10;5.53;;;3.88;;
19919;SDS011;10122;50.074;19.920;2022-07-29T13:19:44;5.78;;;4.00;;
19919;SDS011;10122;50.074;19.920;2022-07-29T13:22:13;6.57;;;4.10;;
19919;SDS011;10122;50.074;19.920;2022-07-29T13:27:18;6.43;;;4.10;;
19919;SDS011;10122;50.074;19.920;2022-07-29T13:29:45;5.07;;;3.72;;
19919;SDS011;10122;50.074;19.920;2022-07-29T13:32:11;6.90;;;3.80;;
19919;SDS011;10122;50.074;19.920;2022-07-29T13:34:38;6.40;;;4.22;;
19919;SDS011;10122;50.074;19.920;2022-07-29T13:37:04;4.43;;;3.78;;
19919;SDS011;10122;50.074;19.920;2022-07-29T13:39:30;5.03;;;3.13;;
19919;SDS011;10122;50.074;19.920;2022-07-29T13:41:55;3.85;;;3.40;;
19919;SDS011;10122;50.074;19.920;2022-07-29T13:44:21;4.25;;;3.38;;
19919;SDS011;10122;50.074;19.920;2022-07-29T13:46:47;7.55;;;3.70;;
19919;SDS011;10122;50.074;19.920;2022-07-29T13:49:12;5.30;;;3.58;;
19919;SDS011;10122;50.074;19.920;2022-07-29T13:51:38;4.43;;;2.90;;
19919;SDS011;10122;50.074;19.920;2022-07-29T13:54:04;5.13;;;3.47;;
19919;SDS011;10122;50.074;19.920;2022-07-29T13:56:30;5.60;;;3.63;;
19919;SDS011;10122;50.074;19.920;2022-07-29T13:58:55;4.25;;;3.28;;
19919;SDS011;10122;50.074;19.920;2022-07-29T14:01:22;4.25;;;3.60;;
19919;SDS011;10122;50.074;19.920;2022-07-29T14:03:47;9.00;;;3.80;;
19919;SDS011;10122;50.074;19.920;2022-07-29T14:06:13;4.20;;;3.63;;
19919;SDS011;10122;50.074;19.920;2022-07-29T14:08:39;4.07;;;3.30;;
19919;SDS011;10122;50.074;19.920;2022-07-29T14:11:05;5.47;;;3.90;;
19919;SDS011;10122;50.074;19.920;2022-07-29T14:13:30;8.43;;;3.83;;
19919;SDS011;10122;50.074;19.920;2022-07-29T14:15:56;7.28;;;3.92;;
19919;SDS011;10122;50.074;19.920;2022-07-29T14:18:22;5.57;;;3.75;;
19919;SDS011;10122;50.074;19.920;2022-07-29T14:20:48;6.03;;;3.47;;
19919;SDS011;10122;50.074;19.920;2022-07-29T14:23:13;6.03;;;3.38;;
19919;SDS011;10122;50.074;19.920;2022-07-29T14:25:39;5.30;;;3.63;;
19919;SDS011;10122;50.074;19.920;2022-07-29T14:28:04;5.63;;;3.55;;
19919;SDS011;10122;50.074;19.920;2022-07-29T14:30:30;5.25;;;3.47;;
19919;SDS011;10122;50.074;19.920;2022-07-29T14:32:56;9.50;;;3.53;;
19919;SDS011;10122;50.074;19.920;2022-07-29T14:35:21;4.30;;;3.40;;
19919;SDS011;10122;50.074;19.920;2022-07-29T14:37:47;5.10;;;3.65;;
19919;SDS011;10122;50.074;19.920;2022-07-29T14:40:13;5.40;;;3.67;;
19919;SDS011;10122;50.074;19.920;2022-07-29T14:42:39;8.80;;;3.60;;
19919;SDS011;10122;50.074;19.920;2022-07-29T14:45:05;3.70;;;3.30;;
19919;SDS011;10122;50.074;19.920;2022-07-29T14:47:32;4.93;;;3.50;;
19919;SDS011;10122;50.074;19.920;2022-07-29T14:49:57;4.30;;;3.42;;
19919;SDS011;10122;50.074;19.920;2022-07-29T14:52:23;7.28;;;3.80;;
19919;SDS011;10122;50.074;19.920;2022-07-29T14:54:48;4.25;;;3.67;;
19919;SDS011;10122;50.074;19.920;2022-07-29T14:57:14;5.63;;;3.80;;
19919;SDS011;10122;50.074;19.920;2022-07-29T14:59:40;4.60;;;3.78;;
19919;SDS011;10122;50.074;19.920;2022-07-29T15:02:05;4.97;;;3.80;;
19919;SDS011;10122;50.074;19.920;2022-07-29T15:04:31;3.60;;;3.25;;
19919;SDS011;10122;50.074;19.920;2022-07-29T15:06:57;6.85;;;3.42;;
19919;SDS011;10122;50.074;19.920;2022-07-29T15:09:22;6.88;;;3.78;;
19919;SDS011;10122;50.074;19.920;2022-07-29T15:11:48;4.78;;;3.60;;
19919;SDS011;10122;50.074;19.920;2022-07-29T15:14:14;7.45;;;3.67;;
19919;SDS011;10122;50.074;19.920;2022-07-29T15:16:40;4.93;;;3.70;;
19919;SDS011;10122;50.074;19.920;2022-07-29T15:19:07;5.32;;;3.60;;
19919;SDS011;10122;50.074;19.920;2022-07-29T15:21:33;7.00;;;3.55;;
19919;SDS011;10122;50.074;19.920;2022-07-29T15:23:58;5.97;;;3.58;;
19919;SDS011;10122;50.074;19.920;2022-07-29T15:26:25;5.95;;;3.80;;
19919;SDS011;10122;50.074;19.920;2022-07-29T15:28:50;4.40;;;3.60;;
19919;SDS011;10122;50.074;19.920;2022-07-29T15:31:16;5.03;;;3.60;;
19919;SDS011;10122;50.074;19.920;2022-07-29T15:33:43;4.32;;;3.40;;
19919;SDS011;10122;50.074;19.920;2022-07-29T15:36:09;5.82;;;3.78;;
19919;SDS011;10122;50.074;19.920;2022-07-29T15:38:37;4.53;;;3.80;;
19919;SDS011;10122;50.074;19.920;2022-07-29T15:41:02;4.60;;;4.03;;